Time,TemperatureF,DewpointF,PressureIn,WindDirection,WindDirectionDegrees,WindSpeedMPH,WindSpeedGustMPH,Humidity,HourlyPrecipIn,Conditions,Clouds,dailyrainin,SolarRadiationWatts/m^2,SoftwareType,DateUTC
2013-04-18 00:02:00,16.0,12.0,-100.00,WSW,245,8.0,12.0,83,0.00,,,0.00,0.000000,,2013-04-18 06:02:00,
2013-04-18 00:12:00,16.0,12.0,-100.00,WSW,245,8.0,12.0,83,0.00,,,0.00,0.000000,,2013-04-18 06:12:00,
2013-04-18 00:22:00,15.0,10.0,-100.00,WSW,248,9.0,12.0,81,0.00,,,0.00,0.000000,,2013-04-18 06:22:00,
2013-04-18 00:42:00,15.0,10.0,-100.00,WSW,248,9.0,12.0,81,0.00,,,0.00,0.000000,,2013-04-18 06:42:00,
2013-04-18 00:52:00,15.0,10.0,-100.00,WSW,248,9.0,12.0,81,0.00,,,0.00,0.000000,,2013-04-18 06:52:00,
2013-04-18 01:02:00,15.0,10.0,-100.00,WSW,248,9.0,12.0,81,0.00,,,0.00,0.000000,,2013-04-18 07:02:00,
2013-04-18 01:12:00,15.0,10.0,-100.00,WSW,248,9.0,12.0,81,0.00,,,0.00,0.000000,,2013-04-18 07:12:00,
2013-04-18 01:22:00,15.0,11.0,-100.00,WSW,250,8.0,12.0,84,0.00,,,0.00,0.000000,,2013-04-18 07:22:00,
2013-04-18 01:42:00,15.0,11.0,-100.00,WSW,250,8.0,12.0,84,0.00,,,0.00,0.000000,,2013-04-18 07:42:00,
2013-04-18 01:53:00,15.0,11.0,-100.00,WSW,250,8.0,12.0,84,0.00,,,0.00,0.000000,,2013-04-18 07:53:00,
2013-04-18 02:02:00,15.0,11.0,-100.00,WSW,250,8.0,12.0,84,0.00,,,0.00,0.000000,,2013-04-18 08:02:00,
2013-04-18 02:12:00,15.0,11.0,-100.00,WSW,250,8.0,12.0,84,0.00,,,0.00,0.000000,,2013-04-18 08:12:00,
2013-04-18 02:22:00,13.0,8.0,-100.00,WSW,245,9.0,14.0,81,0.00,,,0.00,0.000000,,2013-04-18 08:22:00,
2013-04-18 02:42:00,13.0,8.0,-100.00,WSW,245,9.0,14.0,81,0.00,,,0.00,0.000000,,2013-04-18 08:42:00,
2013-04-18 02:52:00,13.0,8.0,-100.00,WSW,245,9.0,14.0,81,0.00,,,0.00,0.000000,,2013-04-18 08:52:00,
2013-04-18 03:02:00,13.0,8.0,-100.00,WSW,245,9.0,14.0,81,0.00,,,0.00,0.000000,,2013-04-18 09:02:00,
2013-04-18 03:12:00,13.0,8.0,-100.00,WSW,245,9.0,14.0,81,0.00,,,0.00,0.000000,,2013-04-18 09:12:00,
2013-04-18 03:22:00,12.0,8.0,-100.00,WSW,241,9.0,14.0,82,0.00,,,0.00,0.000000,,2013-04-18 09:22:00,
2013-04-18 03:43:00,12.0,8.0,-100.00,WSW,241,9.0,14.0,82,0.00,,,0.00,0.000000,,2013-04-18 09:43:00,
2013-04-18 03:53:00,12.0,8.0,-100.00,WSW,241,9.0,14.0,82,0.00,,,0.00,0.000000,,2013-04-18 09:53:00,
2013-04-18 04:03:00,12.0,8.0,-100.00,WSW,241,9.0,14.0,82,0.00,,,0.00,0.000000,,2013-04-18 10:03:00,
2013-04-18 04:12:00,12.0,8.0,-100.00,WSW,241,9.0,14.0,82,0.00,,,0.00,0.000000,,2013-04-18 10:12:00,
2013-04-18 04:22:00,12.0,8.0,-100.00,WSW,240,8.0,12.0,84,0.00,,,0.00,0.000000,,2013-04-18 10:22:00,
2013-04-18 04:42:00,12.0,8.0,-100.00,WSW,240,8.0,12.0,84,0.00,,,0.00,0.000000,,2013-04-18 10:42:00,
2013-04-18 04:52:00,12.0,8.0,-100.00,WSW,240,8.0,12.0,84,0.00,,,0.00,0.000000,,2013-04-18 10:52:00,
2013-04-18 05:02:00,12.0,8.0,-100.00,WSW,240,8.0,12.0,84,0.00,,,0.00,0.000000,,2013-04-18 11:02:00,
2013-04-18 05:12:00,12.0,8.0,-100.00,WSW,240,8.0,12.0,84,0.00,,,0.00,0.000000,,2013-04-18 11:12:00,
2013-04-18 05:22:00,11.0,6.0,-100.00,WSW,246,7.0,12.0,80,0.00,,,0.00,0.000000,,2013-04-18 11:22:00,
2013-04-18 05:42:00,11.0,6.0,-100.00,WSW,246,7.0,12.0,80,0.00,,,0.00,0.000000,,2013-04-18 11:42:00,
2013-04-18 05:52:00,11.0,6.0,-100.00,WSW,246,7.0,12.0,80,0.00,,,0.00,0.000000,,2013-04-18 11:52:00,
2013-04-18 06:02:00,11.0,6.0,-100.00,WSW,246,7.0,12.0,80,0.00,,,0.00,0.000000,,2013-04-18 12:02:00,
2013-04-18 06:12:00,11.0,6.0,-100.00,WSW,246,7.0,12.0,80,0.00,,,0.00,0.000000,,2013-04-18 12:12:00,
2013-04-18 06:22:00,10.0,5.0,-100.00,WSW,249,6.0,11.0,81,0.00,,,0.00,0.000000,,2013-04-18 12:22:00,
2013-04-18 06:42:00,10.0,5.0,-100.00,WSW,249,6.0,11.0,81,0.00,,,0.00,0.000000,,2013-04-18 12:42:00,
2013-04-18 06:52:00,10.0,5.0,-100.00,WSW,249,6.0,11.0,81,0.00,,,0.00,0.000000,,2013-04-18 12:52:00,
2013-04-18 07:02:00,10.0,5.0,-100.00,WSW,249,6.0,11.0,81,0.00,,,0.00,0.000000,,2013-04-18 13:02:00,
2013-04-18 07:12:00,10.0,5.0,-100.00,WSW,249,6.0,11.0,81,0.00,,,0.00,0.000000,,2013-04-18 13:12:00,
2013-04-18 07:22:00,11.0,6.0,-100.00,WSW,257,6.0,9.0,79,0.00,,,0.00,35.000000,,2013-04-18 13:22:00,
2013-04-18 07:43:00,11.0,6.0,-100.00,WSW,257,6.0,9.0,79,0.00,,,0.00,35.000000,,2013-04-18 13:43:00,
2013-04-18 07:53:00,11.0,6.0,-100.00,WSW,257,6.0,9.0,79,0.00,,,0.00,35.000000,,2013-04-18 13:53:00,
2013-04-18 08:02:00,11.0,6.0,-100.00,WSW,257,6.0,9.0,79,0.00,,,0.00,35.000000,,2013-04-18 14:02:00,
2013-04-18 08:12:00,11.0,6.0,-100.00,WSW,257,6.0,9.0,79,0.00,,,0.00,35.000000,,2013-04-18 14:12:00,
2013-04-18 08:22:00,13.0,6.0,-100.00,West,271,5.0,10.0,72,0.00,,,0.00,106.000000,,2013-04-18 14:22:00,
2013-04-18 08:43:00,13.0,6.0,-100.00,West,271,5.0,10.0,72,0.00,,,0.00,106.000000,,2013-04-18 14:43:00,
2013-04-18 08:52:00,13.0,6.0,-100.00,West,271,5.0,10.0,72,0.00,,,0.00,106.000000,,2013-04-18 14:52:00,
2013-04-18 09:03:00,13.0,6.0,-100.00,West,271,5.0,10.0,72,0.00,,,0.00,106.000000,,2013-04-18 15:03:00,
2013-04-18 09:12:00,13.0,6.0,-100.00,West,271,5.0,10.0,72,0.00,,,0.00,106.000000,,2013-04-18 15:12:00,
2013-04-18 09:22:00,16.0,6.0,-100.00,WSW,256,7.0,12.0,65,0.00,,,0.00,282.000000,,2013-04-18 15:22:00,
2013-04-18 09:43:00,16.0,6.0,-100.00,WSW,256,7.0,12.0,65,0.00,,,0.00,282.000000,,2013-04-18 15:43:00,
2013-04-18 09:53:00,16.0,6.0,-100.00,WSW,256,7.0,12.0,65,0.00,,,0.00,282.000000,,2013-04-18 15:53:00,
2013-04-18 10:03:00,16.0,6.0,-100.00,WSW,256,7.0,12.0,65,0.00,,,0.00,282.000000,,2013-04-18 16:03:00,
2013-04-18 10:13:00,16.0,6.0,-100.00,WSW,256,7.0,12.0,65,0.00,,,0.00,282.000000,,2013-04-18 16:13:00,
2013-04-18 10:22:00,19.0,6.0,-100.00,West,267,6.0,13.0,55,0.00,,,0.00,499.000000,,2013-04-18 16:22:00,
2013-04-18 10:43:00,19.0,6.0,-100.00,West,267,6.0,13.0,55,0.00,,,0.00,499.000000,,2013-04-18 16:43:00,
2013-04-18 10:53:00,19.0,6.0,-100.00,West,267,6.0,13.0,55,0.00,,,0.00,499.000000,,2013-04-18 16:53:00,
2013-04-18 11:03:00,19.0,6.0,-100.00,West,267,6.0,13.0,55,0.00,,,0.00,499.000000,,2013-04-18 17:03:00,
2013-04-18 11:12:00,19.0,6.0,-100.00,West,267,6.0,13.0,55,0.00,,,0.00,499.000000,,2013-04-18 17:12:00,
2013-04-18 11:22:00,21.0,7.0,-100.00,WSW,254,9.0,15.0,54,0.00,,,0.00,702.000000,,2013-04-18 17:22:00,
2013-04-18 11:43:00,21.0,7.0,-100.00,WSW,254,9.0,15.0,54,0.00,,,0.00,702.000000,,2013-04-18 17:43:00,
2013-04-18 11:52:00,21.0,7.0,-100.00,WSW,254,9.0,15.0,54,0.00,,,0.00,702.000000,,2013-04-18 17:52:00,
2013-04-18 12:02:00,21.0,7.0,-100.00,WSW,254,9.0,15.0,54,0.00,,,0.00,702.000000,,2013-04-18 18:02:00,
2013-04-18 12:12:00,21.0,7.0,-100.00,WSW,254,9.0,15.0,54,0.00,,,0.00,702.000000,,2013-04-18 18:12:00,
2013-04-18 12:22:00,24.0,2.0,-100.00,WNW,288,7.0,15.0,38,0.00,,,0.00,680.000000,,2013-04-18 18:22:00,
2013-04-18 12:43:00,24.0,2.0,-100.00,WNW,288,7.0,15.0,38,0.00,,,0.00,680.000000,,2013-04-18 18:43:00,
2013-04-18 12:52:00,24.0,2.0,-100.00,WNW,288,7.0,15.0,38,0.00,,,0.00,680.000000,,2013-04-18 18:52:00,
2013-04-18 13:02:00,24.0,2.0,-100.00,WNW,288,7.0,15.0,38,0.00,,,0.00,680.000000,,2013-04-18 19:02:00,
2013-04-18 13:12:00,24.0,2.0,-100.00,WNW,288,7.0,15.0,38,0.00,,,0.00,680.000000,,2013-04-18 19:12:00,
2013-04-18 13:22:00,26.0,2.0,-100.00,West,265,8.0,15.0,35,0.00,,,0.00,989.000000,,2013-04-18 19:22:00,
2013-04-18 13:43:00,26.0,2.0,-100.00,West,265,8.0,15.0,35,0.00,,,0.00,989.000000,,2013-04-18 19:43:00,
2013-04-18 13:53:00,26.0,2.0,-100.00,West,265,8.0,15.0,35,0.00,,,0.00,989.000000,,2013-04-18 19:53:00,
2013-04-18 14:02:00,26.0,2.0,-100.00,West,265,8.0,15.0,35,0.00,,,0.00,989.000000,,2013-04-18 20:02:00,
2013-04-18 14:12:00,26.0,2.0,-100.00,West,265,8.0,15.0,35,0.00,,,0.00,989.000000,,2013-04-18 20:12:00,
2013-04-18 14:22:00,24.0,6.0,-100.00,WSW,243,11.0,18.0,45,0.00,,,0.00,976.000000,,2013-04-18 20:22:00,
2013-04-18 14:42:00,24.0,6.0,-100.00,WSW,243,11.0,18.0,45,0.00,,,0.00,976.000000,,2013-04-18 20:42:00,
2013-04-18 14:52:00,24.0,6.0,-100.00,WSW,243,11.0,18.0,45,0.00,,,0.00,976.000000,,2013-04-18 20:52:00,
2013-04-18 15:02:00,24.0,6.0,-100.00,WSW,243,11.0,18.0,45,0.00,,,0.00,976.000000,,2013-04-18 21:02:00,
2013-04-18 15:12:00,24.0,6.0,-100.00,WSW,243,11.0,18.0,45,0.00,,,0.00,976.000000,,2013-04-18 21:12:00,
2013-04-18 15:22:00,25.0,0.0,-100.00,West,277,8.0,15.0,33,0.00,,,0.00,837.000000,,2013-04-18 21:22:00,
2013-04-18 15:43:00,25.0,0.0,-100.00,West,277,8.0,15.0,33,0.00,,,0.00,837.000000,,2013-04-18 21:43:00,
2013-04-18 15:53:00,25.0,0.0,-100.00,West,277,8.0,15.0,33,0.00,,,0.00,837.000000,,2013-04-18 21:53:00,
2013-04-18 16:02:00,25.0,0.0,-100.00,West,277,8.0,15.0,33,0.00,,,0.00,837.000000,,2013-04-18 22:02:00,
2013-04-18 16:13:00,25.0,0.0,-100.00,West,277,8.0,15.0,33,0.00,,,0.00,837.000000,,2013-04-18 22:13:00,
2013-04-18 16:42:00,24.0,-1.0,-100.00,West,262,9.0,17.0,33,0.00,,,0.00,724.000000,,2013-04-18 22:42:00,
2013-04-18 16:52:00,24.0,-1.0,-100.00,West,262,9.0,17.0,33,0.00,,,0.00,724.000000,,2013-04-18 22:52:00,
2013-04-18 17:04:00,24.0,-1.0,-100.00,West,262,9.0,17.0,33,0.00,,,0.00,724.000000,,2013-04-18 23:04:00,
2013-04-18 17:11:00,24.0,-1.0,-100.00,West,262,9.0,17.0,33,0.00,,,0.00,724.000000,,2013-04-18 23:11:00,
2013-04-18 17:21:00,24.0,-1.0,-100.00,West,262,9.0,17.0,33,0.00,,,0.00,724.000000,,2013-04-18 23:21:00,
2013-04-18 17:42:00,23.0,4.0,-100.00,WSW,251,9.0,18.0,43,0.00,,,0.00,586.000000,,2013-04-18 23:42:00,
2013-04-18 17:52:00,23.0,4.0,-100.00,WSW,251,9.0,18.0,43,0.00,,,0.00,586.000000,,2013-04-18 23:52:00,
2013-04-18 18:01:00,23.0,4.0,-100.00,WSW,251,9.0,18.0,43,0.00,,,0.00,586.000000,,2013-04-19 00:01:00,
2013-04-18 18:12:00,23.0,4.0,-100.00,WSW,251,9.0,18.0,43,0.00,,,0.00,586.000000,,2013-04-19 00:12:00,
2013-04-18 18:21:00,23.0,4.0,-100.00,WSW,251,9.0,18.0,43,0.00,,,0.00,586.000000,,2013-04-19 00:21:00,
2013-04-18 18:42:00,25.0,2.0,-100.00,WSW,256,8.0,17.0,37,0.00,,,0.00,344.000000,,2013-04-19 00:42:00,
2013-04-18 18:52:00,25.0,2.0,-100.00,WSW,256,8.0,17.0,37,0.00,,,0.00,344.000000,,2013-04-19 00:52:00,
2013-04-18 19:01:00,25.0,2.0,-100.00,WSW,256,8.0,17.0,37,0.00,,,0.00,344.000000,,2013-04-19 01:01:00,
2013-04-18 19:11:00,25.0,2.0,-100.00,WSW,256,8.0,17.0,37,0.00,,,0.00,344.000000,,2013-04-19 01:11:00,
2013-04-18 19:21:00,25.0,2.0,-100.00,WSW,256,8.0,17.0,37,0.00,,,0.00,344.000000,,2013-04-19 01:21:00,
2013-04-18 19:42:00,21.0,1.0,-100.00,West,265,7.0,14.0,41,0.00,,,0.00,220.000000,,2013-04-19 01:42:00,
2013-04-18 19:52:00,21.0,1.0,-100.00,West,265,7.0,14.0,41,0.00,,,0.00,220.000000,,2013-04-19 01:52:00,
2013-04-18 20:02:00,21.0,1.0,-100.00,West,265,7.0,14.0,41,0.00,,,0.00,220.000000,,2013-04-19 02:02:00,
2013-04-18 20:11:00,21.0,1.0,-100.00,West,265,7.0,14.0,41,0.00,,,0.00,220.000000,,2013-04-19 02:11:00,
2013-04-18 20:21:00,21.0,1.0,-100.00,West,265,7.0,14.0,41,0.00,,,0.00,220.000000,,2013-04-19 02:21:00,
2013-04-18 20:42:00,18.0,10.0,-100.00,WSW,243,8.0,16.0,70,0.00,,,0.00,14.000000,,2013-04-19 02:42:00,
2013-04-18 20:52:00,18.0,10.0,-100.00,WSW,243,8.0,16.0,70,0.00,,,0.00,14.000000,,2013-04-19 02:52:00,
2013-04-18 21:01:00,18.0,10.0,-100.00,WSW,243,8.0,16.0,70,0.00,,,0.00,14.000000,,2013-04-19 03:01:00,
2013-04-18 21:11:00,18.0,10.0,-100.00,WSW,243,8.0,16.0,70,0.00,,,0.00,14.000000,,2013-04-19 03:11:00,
2013-04-18 21:21:00,18.0,10.0,-100.00,WSW,243,8.0,16.0,70,0.00,,,0.00,14.000000,,2013-04-19 03:21:00,
2013-04-18 21:22:00,17.0,9.0,-100.00,SW,233,10.0,15.0,70,0.00,,,0.00,0.000000,,2013-04-19 03:22:00,
2013-04-18 21:43:00,17.0,9.0,-100.00,SW,233,10.0,15.0,70,0.00,,,0.00,0.000000,,2013-04-19 03:43:00,
2013-04-18 21:53:00,17.0,9.0,-100.00,SW,233,10.0,15.0,70,0.00,,,0.00,0.000000,,2013-04-19 03:53:00,
2013-04-18 22:03:00,17.0,9.0,-100.00,SW,233,10.0,15.0,70,0.00,,,0.00,0.000000,,2013-04-19 04:03:00,
2013-04-18 22:13:00,17.0,9.0,-100.00,SW,233,10.0,15.0,70,0.00,,,0.00,0.000000,,2013-04-19 04:13:00,
2013-04-18 22:22:00,16.0,9.0,-100.00,WSW,258,6.0,13.0,75,0.00,,,0.00,0.000000,,2013-04-19 04:22:00,
2013-04-18 22:43:00,16.0,9.0,-100.00,WSW,258,6.0,13.0,75,0.00,,,0.00,0.000000,,2013-04-19 04:43:00,
2013-04-18 22:52:00,16.0,9.0,-100.00,WSW,258,6.0,13.0,75,0.00,,,0.00,0.000000,,2013-04-19 04:52:00,
2013-04-18 23:03:00,16.0,9.0,-100.00,WSW,258,6.0,13.0,75,0.00,,,0.00,0.000000,,2013-04-19 05:03:00,
2013-04-18 23:11:00,16.0,9.0,-100.00,WSW,258,6.0,13.0,75,0.00,,,0.00,0.000000,,2013-04-19 05:11:00,
2013-04-18 23:22:00,15.0,9.0,-100.00,WSW,249,6.0,10.0,76,0.00,,,0.00,0.000000,,2013-04-19 05:22:00,
2013-04-18 23:42:00,15.0,9.0,-100.00,WSW,249,6.0,10.0,76,0.00,,,0.00,0.000000,,2013-04-19 05:42:00,
2013-04-18 23:52:00,15.0,9.0,-100.00,WSW,249,6.0,10.0,76,0.00,,,0.00,0.000000,,2013-04-19 05:52:00,